createdAt,value
2017-07-04T00:00:43.577Z,62.09
2017-07-04T00:03:11.065Z,62.32
2017-07-04T00:05:40.051Z,62.12
2017-07-04T00:08:07.673Z,62.29
2017-07-04T00:10:35.073Z,62.22
2017-07-04T00:13:02.529Z,62.48
2017-07-04T00:15:31.952Z,62.59
2017-07-04T00:17:59.376Z,62.37
2017-07-04T00:20:28.789Z,62.28
2017-07-04T00:22:57.914Z,62.20
2017-07-04T00:25:25.997Z,62.04
2017-07-04T00:27:53.414Z,62.16
2017-07-04T00:30:20.843Z,62.01
2017-07-04T00:32:49.929Z,62.46
2017-07-04T00:35:17.720Z,62.24
2017-07-04T00:37:45.738Z,62.22
2017-07-04T00:40:14.915Z,62.40
2017-07-04T00:42:43.725Z,62.63
2017-07-04T00:45:11.119Z,62.97
2017-07-04T00:47:38.650Z,63.00
2017-07-04T00:50:06.922Z,63.34
2017-07-04T00:52:34.355Z,63.75
2017-07-04T00:55:01.763Z,64.19
2017-07-04T00:57:31.167Z,64.03
2017-07-04T00:59:58.593Z,63.47
2017-07-04T01:02:26.764Z,63.79
2017-07-04T01:04:54.305Z,63.81
2017-07-04T01:07:21.715Z,63.79
2017-07-04T01:09:49.123Z,63.89
2017-07-04T01:12:16.563Z,64.35
2017-07-04T01:14:43.968Z,64.45
2017-07-04T01:17:11.443Z,64.81
2017-07-04T01:19:38.877Z,65.00
2017-07-04T01:22:08.103Z,65.44
2017-07-04T01:24:36.727Z,65.94
2017-07-04T01:27:05.745Z,65.57
2017-07-04T01:29:33.185Z,65.79
2017-07-04T01:32:01.317Z,66.14
2017-07-04T01:34:28.760Z,66.31
2017-07-04T01:36:56.317Z,66.30
2017-07-04T01:39:23.731Z,65.76
2017-07-04T01:41:52.023Z,65.68
2017-07-04T01:44:19.427Z,65.71
2017-07-04T01:46:46.868Z,65.86
2017-07-04T01:49:14.350Z,65.49
2017-07-04T01:51:41.771Z,65.38
2017-07-04T01:54:09.205Z,65.53
2017-07-04T01:56:36.667Z,65.40
2017-07-04T01:59:04.111Z,65.31
2017-07-04T02:01:33.300Z,65.32
2017-07-04T02:04:02.034Z,65.40
2017-07-04T02:06:29.503Z,65.21
2017-07-04T02:08:56.960Z,65.15
2017-07-04T02:11:24.488Z,65.16
2017-07-04T02:13:53.939Z,65.06
2017-07-04T02:16:21.369Z,65.29
2017-07-04T02:18:48.779Z,65.50
2017-07-04T02:21:16.249Z,65.46
2017-07-04T02:23:43.652Z,65.18
2017-07-04T02:26:11.483Z,65.51
2017-07-04T02:28:38.992Z,65.53
2017-07-04T02:31:06.428Z,65.34
2017-07-04T02:33:34.189Z,65.70
2017-07-04T02:36:01.624Z,65.83
2017-07-04T02:38:29.054Z,66.03
2017-07-04T02:40:57.396Z,66.16
2017-07-04T02:43:24.852Z,66.06
2017-07-04T02:45:52.280Z,66.22
2017-07-04T02:48:19.707Z,66.51
2017-07-04T02:50:47.120Z,67.10
2017-07-04T02:53:16.382Z,66.70
2017-07-04T02:55:43.853Z,66.69
2017-07-04T02:58:11.362Z,66.76
2017-07-04T03:00:38.774Z,67.09
2017-07-04T03:03:06.238Z,66.97
2017-07-04T03:05:33.663Z,67.72
2017-07-04T03:08:01.089Z,67.88
2017-07-04T03:10:28.523Z,68.35
2017-07-04T03:12:57.695Z,68.74
2017-07-04T03:15:25.151Z,68.33
2017-07-04T03:17:54.585Z,68.21
2017-07-04T03:20:22.062Z,68.36
2017-07-04T03:22:49.519Z,67.98
2017-07-04T03:25:16.927Z,68.08
2017-07-04T03:27:44.369Z,68.29
2017-07-04T03:30:11.827Z,68.01
2017-07-04T03:32:39.216Z,68.00
2017-07-04T03:35:06.736Z,67.71
2017-07-04T03:37:34.135Z,67.87
2017-07-04T03:40:01.587Z,68.07
2017-07-04T03:42:29.737Z,68.44
2017-07-04T03:44:57.148Z,68.45
2017-07-04T03:47:24.588Z,68.81
2017-07-04T03:49:51.984Z,68.74
2017-07-04T03:52:19.451Z,68.85
2017-07-04T03:54:47.664Z,69.17
2017-07-04T03:57:15.085Z,69.11
2017-07-04T03:59:42.522Z,68.89
2017-07-04T04:02:09.952Z,68.99
2017-07-04T04:04:37.431Z,68.95
2017-07-04T04:07:04.848Z,69.34
2017-07-04T04:09:33.532Z,69.46
2017-07-04T04:12:01.120Z,69.83
2017-07-04T04:14:30.234Z,70.60
2017-07-04T04:16:57.718Z,70.24
2017-07-04T04:19:25.186Z,70.00
2017-07-04T04:21:52.624Z,69.73
2017-07-04T04:24:20.068Z,69.77
2017-07-04T04:26:47.524Z,69.68
2017-07-04T04:29:14.974Z,69.33
2017-07-04T04:31:42.381Z,68.35
2017-07-04T04:34:09.820Z,68.14
2017-07-04T04:36:37.260Z,67.37
2017-07-04T04:39:04.727Z,69.34
2017-07-04T04:41:32.356Z,69.30
2017-07-04T04:43:59.804Z,69.33
2017-07-04T04:46:27.257Z,69.05
2017-07-04T04:48:54.665Z,68.83
2017-07-04T04:51:22.122Z,68.47
2017-07-04T04:53:51.410Z,68.49
2017-07-04T04:56:19.690Z,68.25
2017-07-04T04:58:47.132Z,68.01
2017-07-04T05:01:14.636Z,68.15
2017-07-04T05:03:42.092Z,67.14
2017-07-04T05:06:09.517Z,67.20
2017-07-04T05:08:36.976Z,66.91
2017-07-04T05:11:05.406Z,67.32
2017-07-04T05:13:32.807Z,67.27
2017-07-04T05:16:00.245Z,67.39
2017-07-04T05:18:27.759Z,67.85
2017-07-04T05:20:55.198Z,68.16
2017-07-04T05:23:22.605Z,68.55
2017-07-04T05:25:50.052Z,69.02
2017-07-04T05:28:17.585Z,67.94
2017-07-04T05:30:44.980Z,67.23
2017-07-04T05:33:12.454Z,66.66
2017-07-04T05:35:39.863Z,66.71
2017-07-04T05:38:07.316Z,66.75
2017-07-04T05:40:34.770Z,66.65
2017-07-04T05:43:02.186Z,66.62
2017-07-04T05:45:29.701Z,66.39
2017-07-04T05:47:57.257Z,65.89
2017-07-04T05:50:24.681Z,65.27
2017-07-04T05:52:52.097Z,65.32
2017-07-04T05:55:19.571Z,65.25
2017-07-04T05:57:46.980Z,65.23
2017-07-04T06:00:14.418Z,64.91
2017-07-04T06:02:41.905Z,65.14
2017-07-04T06:05:09.504Z,65.16
2017-07-04T06:07:37.101Z,65.01
2017-07-04T06:10:04.844Z,64.70
2017-07-04T06:12:32.276Z,64.92
2017-07-04T06:14:59.829Z,65.18
2017-07-04T06:17:27.293Z,64.91
2017-07-04T06:19:54.698Z,64.78
2017-07-04T06:22:22.107Z,65.01
2017-07-04T06:24:49.551Z,64.86
2017-07-04T06:27:17.002Z,64.55
2017-07-04T06:29:44.431Z,63.80
2017-07-04T06:32:12.059Z,64.57
2017-07-04T06:34:39.545Z,63.80
2017-07-04T06:37:06.948Z,63.34
2017-07-04T06:39:34.352Z,62.13
2017-07-04T06:42:01.804Z,62.31
2017-07-04T06:44:29.204Z,61.13
2017-07-04T06:46:56.618Z,59.41
2017-07-04T06:49:24.388Z,58.79
2017-07-04T06:51:51.821Z,57.78
2017-07-04T06:54:19.273Z,58.06
2017-07-04T06:56:46.679Z,56.30
2017-07-04T06:59:14.116Z,58.24
2017-07-04T07:01:41.527Z,58.61
2017-07-04T07:04:09.022Z,59.41
2017-07-04T07:06:36.459Z,58.92
2017-07-04T07:09:03.919Z,58.74
2017-07-04T07:11:31.334Z,59.21
2017-07-04T07:13:58.787Z,57.33
2017-07-04T07:16:26.267Z,59.24
2017-07-04T07:18:53.679Z,59.62
2017-07-04T07:21:21.214Z,58.96
2017-07-04T07:23:48.640Z,57.98
2017-07-04T07:26:16.115Z,57.94
2017-07-04T07:28:43.679Z,57.85
2017-07-04T07:31:11.101Z,58.50
2017-07-04T07:33:38.548Z,59.51
2017-07-04T07:36:05.948Z,57.82
2017-07-04T07:38:33.394Z,57.49
2017-07-04T07:41:00.803Z,57.30
2017-07-04T07:43:28.220Z,56.15
2017-07-04T07:45:55.804Z,56.53
2017-07-04T07:48:23.191Z,56.46
2017-07-04T07:50:50.678Z,56.05
2017-07-04T07:53:18.104Z,56.42
2017-07-04T07:55:45.542Z,53.99
2017-07-04T07:58:12.998Z,53.81
2017-07-04T08:00:40.424Z,54.34
2017-07-04T08:03:07.974Z,53.07
2017-07-04T08:05:35.487Z,52.92
2017-07-04T08:08:02.904Z,51.08
2017-07-04T08:10:30.363Z,51.97
2017-07-04T08:12:57.776Z,52.64
2017-07-04T08:15:25.181Z,51.85
2017-07-04T08:17:52.638Z,50.43
2017-07-04T08:20:20.142Z,51.24
2017-07-04T08:22:47.556Z,50.49
2017-07-04T08:25:15.028Z,51.04
2017-07-04T08:27:42.428Z,50.59
2017-07-04T08:30:09.841Z,49.79
2017-07-04T08:32:37.300Z,49.30
2017-07-04T08:35:04.760Z,48.83
2017-07-04T08:37:32.421Z,48.21
2017-07-04T08:39:59.994Z,46.56
2017-07-04T08:42:27.405Z,47.25
2017-07-04T08:44:54.819Z,45.11
2017-07-04T08:47:22.255Z,45.21
2017-07-04T08:49:49.697Z,44.52
2017-07-04T08:52:17.128Z,44.42
2017-07-04T08:54:44.553Z,43.21
2017-07-04T08:57:12.071Z,44.23
2017-07-04T08:59:39.498Z,44.05
2017-07-04T09:02:06.896Z,45.49
2017-07-04T09:04:34.343Z,44.62
2017-07-04T09:07:01.765Z,44.08
2017-07-04T09:09:29.212Z,46.27
2017-07-04T09:11:56.624Z,44.19
2017-07-04T09:14:24.373Z,47.17
2017-07-04T09:16:51.869Z,47.68
2017-07-04T09:19:19.403Z,48.99
2017-07-04T09:21:46.853Z,48.70
2017-07-04T09:24:14.273Z,49.37
2017-07-04T09:26:41.667Z,47.68
2017-07-04T09:29:09.112Z,47.48
2017-07-04T09:31:36.569Z,46.89
2017-07-04T09:34:03.979Z,44.81
2017-07-04T09:36:31.504Z,45.02
2017-07-04T09:38:58.945Z,46.58
2017-07-04T09:41:26.512Z,44.46
2017-07-04T09:43:53.957Z,45.12
2017-07-04T09:46:21.385Z,43.84
2017-07-04T09:48:48.811Z,43.62
2017-07-04T09:51:16.256Z,41.96
2017-07-04T09:53:43.698Z,42.69
2017-07-04T09:56:11.112Z,40.15
2017-07-04T09:58:39.170Z,41.85
2017-07-04T10:01:06.580Z,39.83
2017-07-04T10:03:34.043Z,39.48
2017-07-04T10:06:01.463Z,39.18
2017-07-04T10:08:28.920Z,39.26
2017-07-04T10:10:56.337Z,38.65
2017-07-04T10:13:30.056Z,40.73
2017-07-04T10:15:57.505Z,41.83
2017-07-04T10:18:24.929Z,42.21
2017-07-04T10:20:52.360Z,42.37
2017-07-04T10:23:19.800Z,41.19
2017-07-04T10:25:47.255Z,43.19
2017-07-04T10:28:14.670Z,41.48
2017-07-04T10:30:42.133Z,42.48
2017-07-04T10:33:09.547Z,42.13
2017-07-04T10:35:37.007Z,42.15
2017-07-04T10:38:04.435Z,39.87
2017-07-04T10:40:31.833Z,40.20
2017-07-04T10:42:59.278Z,40.70
2017-07-04T10:45:26.699Z,40.15
2017-07-04T10:47:54.144Z,39.83
2017-07-04T10:50:21.580Z,40.89
2017-07-04T10:52:49.029Z,36.54
2017-07-04T10:55:16.451Z,37.33
2017-07-04T10:57:43.860Z,34.85
2017-07-04T11:00:11.315Z,34.79
2017-07-04T11:02:38.727Z,37.27
2017-07-04T11:05:06.136Z,37.84
2017-07-04T11:07:33.572Z,36.96
2017-07-04T11:10:00.985Z,38.09
2017-07-04T11:12:28.493Z,37.56
2017-07-04T11:14:55.897Z,37.33
2017-07-04T11:17:23.416Z,37.81
2017-07-04T11:19:50.855Z,37.12
2017-07-04T11:22:18.316Z,37.73
2017-07-04T11:24:45.763Z,38.44
2017-07-04T11:27:13.168Z,38.32
2017-07-04T11:29:40.628Z,37.45
2017-07-04T11:32:08.035Z,38.04
2017-07-04T11:34:35.476Z,40.41
2017-07-04T11:37:02.891Z,37.83
2017-07-04T11:39:30.344Z,38.43
2017-07-04T11:41:57.744Z,38.90
2017-07-04T11:44:25.220Z,38.29
2017-07-04T11:46:52.689Z,38.56
2017-07-04T11:49:20.096Z,39.31
2017-07-04T11:51:47.545Z,37.79
2017-07-04T11:54:14.974Z,38.43
2017-07-04T11:56:42.387Z,39.45
2017-07-04T11:59:09.844Z,37.70
2017-07-04T12:01:37.288Z,36.66
2017-07-04T12:04:04.730Z,38.35
2017-07-04T12:06:32.168Z,38.61
2017-07-04T12:08:59.673Z,37.05
2017-07-04T12:11:27.110Z,38.51
2017-07-04T12:13:54.531Z,37.55
2017-07-04T12:16:21.976Z,37.07
2017-07-04T12:18:49.549Z,38.67
2017-07-04T12:21:17.085Z,38.64
2017-07-04T12:23:44.512Z,38.56
2017-07-04T12:26:11.915Z,39.62
2017-07-04T12:28:39.366Z,38.02
2017-07-04T12:31:06.808Z,39.28
2017-07-04T12:33:34.264Z,38.36
2017-07-04T12:36:01.704Z,38.00
2017-07-04T12:38:29.148Z,38.79
2017-07-04T12:40:56.581Z,37.81
2017-07-04T12:43:24.015Z,38.48
2017-07-04T12:45:51.458Z,38.19
2017-07-04T12:48:18.867Z,35.70
2017-07-04T12:50:46.348Z,35.21
2017-07-04T12:53:13.808Z,34.46
2017-07-04T12:55:41.265Z,32.08
2017-07-04T12:58:08.677Z,30.78
2017-07-04T13:00:36.089Z,30.04
2017-07-04T13:03:03.524Z,29.36
2017-07-04T13:05:30.935Z,30.74
2017-07-04T13:07:58.441Z,31.16
2017-07-04T13:10:25.898Z,33.43
2017-07-04T13:12:53.308Z,33.93
2017-07-04T13:15:20.769Z,34.12
2017-07-04T13:17:48.205Z,34.73
2017-07-04T13:20:15.620Z,35.52
2017-07-04T13:22:43.059Z,35.60
2017-07-04T13:25:10.488Z,36.99
2017-07-04T13:27:37.937Z,34.16
2017-07-04T13:30:05.416Z,33.01
2017-07-04T13:32:32.834Z,32.17
2017-07-04T13:35:00.331Z,31.72
2017-07-04T13:37:27.747Z,29.53
2017-07-04T13:39:55.243Z,27.91
2017-07-04T13:42:22.666Z,27.40
2017-07-04T13:44:50.132Z,27.50
2017-07-04T13:47:18.067Z,28.87
2017-07-04T13:49:45.552Z,27.13
2017-07-04T13:52:13.021Z,27.99
2017-07-04T13:54:40.490Z,30.94
2017-07-04T13:57:08.556Z,30.95
2017-07-04T13:59:35.972Z,30.58
2017-07-04T14:02:03.485Z,25.85
2017-07-04T14:04:30.916Z,25.51
2017-07-04T14:06:58.362Z,27.43
2017-07-04T14:09:25.760Z,28.82
2017-07-04T14:11:53.188Z,28.46
2017-07-04T14:14:20.597Z,27.25
2017-07-04T14:16:48.052Z,27.23
2017-07-04T14:19:15.457Z,28.60
2017-07-04T14:24:09.483Z,31.44
2017-07-04T14:26:36.937Z,31.67
2017-07-04T14:29:04.452Z,30.71
2017-07-04T14:31:32.023Z,30.30
2017-07-04T14:33:59.436Z,31.00
2017-07-04T14:36:26.902Z,30.32
2017-07-04T14:38:54.320Z,29.23
2017-07-04T14:41:21.736Z,30.31
2017-07-04T14:43:49.208Z,30.92
2017-07-04T14:46:16.610Z,33.25
2017-07-04T14:48:44.227Z,33.41
2017-07-04T14:51:11.659Z,32.96
2017-07-04T14:53:39.120Z,32.27
2017-07-04T14:56:06.561Z,34.60
2017-07-04T14:58:33.973Z,34.69
2017-07-04T15:01:01.427Z,34.78
2017-07-04T15:03:28.868Z,34.60
2017-07-04T15:05:56.521Z,35.26
2017-07-04T15:08:23.979Z,35.98
2017-07-04T15:10:51.487Z,34.57
2017-07-04T15:13:18.946Z,35.97
2017-07-04T15:15:46.365Z,35.68
2017-07-04T15:18:13.776Z,35.17
2017-07-04T15:20:41.228Z,35.33
2017-07-04T15:23:08.672Z,35.54
2017-07-04T15:25:36.097Z,33.15
2017-07-04T15:28:03.655Z,33.49
2017-07-04T15:30:31.067Z,34.03
2017-07-04T15:32:58.481Z,34.17
2017-07-04T15:35:25.932Z,35.06
2017-07-04T15:37:53.341Z,34.98
2017-07-04T15:40:20.824Z,35.50
2017-07-04T15:42:48.369Z,35.27
2017-07-04T15:45:15.964Z,34.97
2017-07-04T15:47:43.418Z,35.52
2017-07-04T15:50:10.900Z,35.98
2017-07-04T15:52:38.376Z,35.31
2017-07-04T15:55:05.778Z,36.66
2017-07-04T15:57:33.192Z,35.92
2017-07-04T16:00:00.671Z,35.45
2017-07-04T16:02:28.090Z,35.62
2017-07-04T16:04:55.556Z,36.47
2017-07-04T16:07:23.288Z,36.67
2017-07-04T16:09:50.709Z,37.40
2017-07-04T16:12:18.167Z,36.50
2017-07-04T16:14:45.626Z,37.57
2017-07-04T16:17:13.074Z,36.51
2017-07-04T16:19:40.528Z,36.42
2017-07-04T16:22:07.959Z,36.28
2017-07-04T16:24:35.519Z,36.47
2017-07-04T16:27:02.978Z,36.33
2017-07-04T16:29:30.847Z,34.83
2017-07-04T16:31:58.341Z,35.70
2017-07-04T16:34:25.801Z,36.01
2017-07-04T16:36:53.225Z,36.59
2017-07-04T16:39:20.768Z,36.65
2017-07-04T16:41:48.228Z,36.11
2017-07-04T16:44:15.660Z,37.03
2017-07-04T16:46:43.089Z,37.64
2017-07-04T16:49:10.504Z,37.72
2017-07-04T16:51:37.949Z,36.42
2017-07-04T16:54:05.486Z,37.10
2017-07-04T16:56:32.924Z,38.13
2017-07-04T16:59:00.366Z,37.51
2017-07-04T17:01:27.807Z,37.91
2017-07-04T17:03:55.265Z,37.49
2017-07-04T17:06:22.677Z,37.67
2017-07-04T17:08:50.095Z,37.92
2017-07-04T17:11:17.562Z,38.03
2017-07-04T17:13:45.051Z,38.35
2017-07-04T17:16:12.487Z,38.98
2017-07-04T17:18:40.001Z,38.11
2017-07-04T17:21:07.472Z,38.32
2017-07-04T17:23:34.932Z,38.38
2017-07-04T17:26:02.447Z,38.67
2017-07-04T17:28:29.949Z,38.58
2017-07-04T17:30:57.433Z,38.84
2017-07-04T17:33:24.888Z,39.10
2017-07-04T17:35:52.365Z,38.93
2017-07-04T17:38:19.831Z,39.36
2017-07-04T17:40:47.252Z,39.55
2017-07-04T17:43:14.779Z,39.10
2017-07-04T17:45:42.194Z,39.42
2017-07-04T17:48:10.021Z,39.55
2017-07-04T17:50:37.507Z,40.24
2017-07-04T17:53:04.956Z,40.27
2017-07-04T17:55:32.443Z,39.78
2017-07-04T17:57:59.925Z,40.38
2017-07-04T18:00:27.365Z,40.22
2017-07-04T18:02:54.776Z,40.08
2017-07-04T18:05:22.181Z,40.54
2017-07-04T18:07:49.680Z,40.66
2017-07-04T18:10:17.089Z,40.65
2017-07-04T18:12:44.527Z,40.55
2017-07-04T18:15:11.944Z,40.57
2017-07-04T18:17:39.404Z,40.59
2017-07-04T18:20:06.805Z,40.59
2017-07-04T18:22:34.248Z,41.66
2017-07-04T18:25:01.687Z,40.97
2017-07-04T18:27:29.118Z,41.23
2017-07-04T18:29:56.581Z,41.36
2017-07-04T18:32:23.995Z,41.62
2017-07-04T18:34:51.516Z,42.02
2017-07-04T18:37:18.960Z,41.64
2017-07-04T18:39:46.382Z,42.00
2017-07-04T18:42:13.832Z,42.14
2017-07-04T18:44:41.259Z,42.41
2017-07-04T18:47:08.689Z,44.23
2017-07-04T18:49:36.223Z,43.48
2017-07-04T18:52:03.638Z,44.45
2017-07-04T18:54:31.097Z,47.00
2017-07-04T18:56:58.511Z,47.02
2017-07-04T18:59:25.963Z,46.20
2017-07-04T19:01:53.381Z,46.48
2017-07-04T19:04:20.808Z,45.25
2017-07-04T19:06:48.273Z,45.79
2017-07-04T19:09:15.694Z,46.29
2017-07-04T19:11:43.110Z,49.58
2017-07-04T19:14:10.556Z,46.89
2017-07-04T19:16:37.967Z,49.31
2017-07-04T19:19:05.475Z,47.59
2017-07-04T19:21:32.922Z,48.37
2017-07-04T19:24:00.355Z,49.64
2017-07-04T19:26:27.841Z,49.94
2017-07-04T19:28:55.322Z,48.42
2017-07-04T19:31:22.784Z,48.85
2017-07-04T19:33:50.312Z,47.92
2017-07-04T19:36:17.756Z,48.61
2017-07-04T19:38:45.274Z,49.32
2017-07-04T19:41:12.708Z,48.78
2017-07-04T19:43:41.023Z,49.00
2017-07-04T19:46:08.493Z,49.19
2017-07-04T19:48:35.906Z,49.49
2017-07-04T19:51:04.176Z,50.20
2017-07-04T19:53:31.633Z,51.09
2017-07-04T19:55:59.116Z,51.17
2017-07-04T19:58:26.595Z,51.32
2017-07-04T20:00:54.037Z,51.38
2017-07-04T20:03:21.510Z,51.34
2017-07-04T20:05:48.957Z,50.89
2017-07-04T20:08:16.477Z,51.10
2017-07-04T20:10:43.933Z,51.45
2017-07-04T20:13:11.587Z,51.93
2017-07-04T20:15:39.104Z,51.67
2017-07-04T20:18:06.590Z,51.88
2017-07-04T20:20:34.130Z,52.04
2017-07-04T20:23:01.585Z,51.56
2017-07-04T20:25:28.986Z,51.67
2017-07-04T20:27:56.460Z,52.44
2017-07-04T20:30:23.867Z,52.40
2017-07-04T20:32:51.661Z,52.47
2017-07-04T20:35:19.056Z,53.05
2017-07-04T20:37:46.525Z,53.75
2017-07-04T20:40:13.997Z,54.01
2017-07-04T20:42:41.474Z,53.91
2017-07-04T20:45:08.919Z,54.14
2017-07-04T20:47:36.378Z,54.21
2017-07-04T20:50:03.784Z,54.36
2017-07-04T20:52:31.236Z,54.52
2017-07-04T20:54:58.690Z,54.22
2017-07-04T20:57:26.108Z,54.38
2017-07-04T20:59:53.576Z,54.36
2017-07-04T21:02:21.037Z,54.52
2017-07-04T21:04:48.467Z,54.57
2017-07-04T21:07:15.877Z,54.01
2017-07-04T21:09:43.392Z,54.88
2017-07-04T21:12:10.802Z,54.77
2017-07-04T21:14:38.256Z,55.08
2017-07-04T21:17:05.663Z,55.00
2017-07-04T21:19:33.095Z,55.45
2017-07-04T21:22:00.544Z,55.45
2017-07-04T21:24:27.993Z,56.45
2017-07-04T21:26:55.618Z,56.85
2017-07-04T21:29:23.028Z,56.70
2017-07-04T21:31:50.510Z,56.72
2017-07-04T21:34:17.926Z,56.49
2017-07-04T21:36:45.343Z,56.58
2017-07-04T21:39:12.832Z,56.57
2017-07-04T21:41:40.248Z,56.86
2017-07-04T21:44:07.671Z,56.91
2017-07-04T21:46:35.157Z,57.06
2017-07-04T21:49:02.564Z,56.79
2017-07-04T21:51:30.059Z,56.83
2017-07-04T21:53:57.608Z,56.78
2017-07-04T21:56:25.042Z,57.38
2017-07-04T21:58:52.483Z,58.00
2017-07-04T22:01:19.913Z,57.94
2017-07-04T22:03:47.344Z,58.27
2017-07-04T22:06:14.792Z,58.37
2017-07-04T22:08:42.204Z,58.31
2017-07-04T22:11:09.776Z,58.08
2017-07-04T22:13:37.218Z,58.46
2017-07-04T22:16:04.631Z,58.23
2017-07-04T22:18:32.060Z,59.31
2017-07-04T22:20:59.489Z,58.95
2017-07-04T22:23:26.938Z,59.03
2017-07-04T22:25:54.359Z,59.30
2017-07-04T22:28:21.804Z,59.76
2017-07-04T22:30:49.233Z,59.95
2017-07-04T22:33:20.540Z,59.81
2017-07-04T22:35:47.988Z,59.82
2017-07-04T22:38:15.421Z,59.87
2017-07-04T22:40:42.815Z,60.48
2017-07-04T22:43:10.258Z,60.67
2017-07-04T22:45:37.680Z,60.89
2017-07-04T22:48:05.129Z,61.05
2017-07-04T22:50:32.546Z,60.96
2017-07-04T22:53:00.069Z,61.12
2017-07-04T22:55:27.492Z,60.94
2017-07-04T22:57:55.516Z,60.87
2017-07-04T23:00:22.964Z,61.04
2017-07-04T23:02:50.376Z,61.17
2017-07-04T23:05:17.806Z,61.44
2017-07-04T23:07:45.243Z,61.12
2017-07-04T23:10:12.661Z,61.10
2017-07-04T23:12:40.098Z,61.50
2017-07-04T23:15:07.544Z,61.83
2017-07-04T23:17:34.958Z,61.80
2017-07-04T23:20:02.391Z,62.07
2017-07-04T23:22:29.799Z,61.75
2017-07-04T23:24:57.268Z,62.06
2017-07-04T23:27:25.010Z,62.09
2017-07-04T23:29:52.526Z,62.21
2017-07-04T23:32:19.925Z,62.40
2017-07-04T23:34:47.380Z,62.85
2017-07-04T23:37:14.783Z,63.36
2017-07-04T23:39:42.239Z,63.60
2017-07-04T23:42:09.648Z,63.62
2017-07-04T23:44:37.093Z,63.40
2017-07-04T23:47:04.616Z,63.37
2017-07-04T23:49:32.398Z,63.56
2017-07-04T23:51:59.830Z,64.14
2017-07-04T23:54:27.253Z,64.41
2017-07-04T23:56:54.685Z,64.19
2017-07-04T23:59:22.161Z,63.90
